Andersonburg, Pennsylvania
Current Conditions -  °F | °C
As of 3:56 PM on Friday 19 Dec 2014 (Local Time) from KCXY Reporting Station
Few Clouds Few Clouds  
Wind Chill:   Ceiling: Unl
Heat Index:   Visibility: 10mi
Dew Point: -6°   Wind: 8mph
Humidity: 49%   Direction: 320°NW
Pressure: 30.14"   Gusts: NA
Location:  40.3674°N, 77.4381°W
Report Text: KCXY 192056Z 32007KT 300V360 10SM FEW042 04/M06 A3014 RMK AO2 SLP210 T00391061 53011
Loading
Personal Weather Stations






























Interactive Weather Map New forecast layout! Learn more

10-Day Weather Forecast

Advertisements
Track Severe Weather on mobile